createdAt,value
2018-01-22T00:00:19.005Z,13.25
2018-01-22T00:00:50.641Z,14.75
2018-01-22T00:01:22.288Z,19.10
2018-01-22T00:01:53.924Z,14.40
2018-01-22T00:02:25.558Z,14.45
2018-01-22T00:02:57.163Z,16.90
2018-01-22T00:03:28.827Z,12.60
2018-01-22T00:04:00.459Z,18.02
2018-01-22T00:04:32.199Z,14.85
2018-01-22T00:05:03.899Z,14.55
2018-01-22T00:05:35.521Z,17.10
2018-01-22T00:06:07.215Z,13.02
2018-01-22T00:06:38.849Z,17.65
2018-01-22T00:07:10.465Z,18.02
2018-01-22T00:07:42.075Z,14.43
2018-01-22T00:08:13.686Z,16.95
2018-01-22T00:08:45.295Z,17.60
2018-01-22T00:09:16.909Z,20.55
2018-01-22T00:09:49.417Z,18.92
2018-01-22T00:10:21.083Z,17.62
2018-01-22T00:10:52.739Z,20.17
2018-01-22T00:11:24.369Z,15.05
2018-01-22T00:11:56.021Z,17.80
2018-01-22T00:12:27.658Z,13.90
2018-01-22T00:12:59.257Z,12.93
2018-01-22T00:13:30.888Z,15.27
2018-01-22T00:14:02.518Z,16.55
2018-01-22T00:14:34.125Z,17.73
2018-01-22T00:15:05.753Z,15.13
2018-01-22T00:15:37.414Z,15.77
2018-01-22T00:16:09.059Z,15.15
2018-01-22T00:16:40.665Z,13.52
2018-01-22T00:17:12.289Z,14.30
2018-01-22T00:17:43.923Z,14.52
2018-01-22T00:18:15.533Z,16.37
2018-01-22T00:18:47.143Z,20.62
2018-01-22T00:19:18.755Z,16.23
2018-01-22T00:19:50.368Z,14.55
2018-01-22T00:20:21.985Z,14.07
2018-01-22T00:20:53.651Z,16.70
2018-01-22T00:21:25.255Z,15.05
2018-01-22T00:21:56.868Z,15.07
2018-01-22T00:22:28.477Z,16.48
2018-01-22T00:23:00.133Z,17.83
2018-01-22T00:23:31.747Z,13.65
2018-01-22T00:24:03.387Z,16.37
2018-01-22T00:24:35.034Z,17.37
2018-01-22T00:25:06.653Z,16.35
2018-01-22T00:25:38.275Z,14.05
2018-01-22T00:26:09.900Z,14.23
2018-01-22T00:26:41.531Z,15.35
2018-01-22T00:27:13.161Z,20.02
2018-01-22T00:27:44.783Z,16.15
2018-01-22T00:28:16.398Z,14.18
2018-01-22T00:28:48.021Z,18.25
2018-01-22T00:29:19.649Z,15.38
2018-01-22T00:29:51.279Z,16.58
2018-01-22T00:30:22.906Z,16.52
2018-01-22T00:30:54.533Z,14.23
2018-01-22T00:31:26.166Z,15.13
2018-01-22T00:31:57.804Z,14.48
2018-01-22T00:32:29.417Z,13.45
2018-01-22T00:33:01.049Z,14.30
2018-01-22T00:33:32.666Z,15.80
2018-01-22T00:34:09.364Z,15.27
2018-01-22T00:34:40.981Z,15.52
2018-01-22T00:35:12.591Z,15.65
2018-01-22T00:35:44.219Z,15.63
2018-01-22T00:36:15.858Z,13.48
2018-01-22T00:36:47.507Z,12.77
2018-01-22T00:37:19.145Z,16.05
2018-01-22T00:37:50.772Z,16.10
2018-01-22T00:38:22.393Z,14.68
2018-01-22T00:38:54.025Z,16.35
2018-01-22T00:39:25.626Z,14.40
2018-01-22T00:39:57.247Z,17.00
2018-01-22T00:40:28.857Z,14.48
2018-01-22T00:41:00.487Z,17.27
2018-01-22T00:41:32.143Z,12.15
2018-01-22T00:42:03.759Z,14.48
2018-01-22T00:42:35.372Z,18.12
2018-01-22T00:43:06.984Z,12.90
2018-01-22T00:43:38.590Z,13.38
2018-01-22T00:44:10.227Z,14.35
2018-01-22T00:44:41.841Z,14.68
2018-01-22T00:45:13.456Z,12.98
2018-01-22T00:45:45.099Z,12.85
2018-01-22T00:46:16.715Z,14.45
2018-01-22T00:46:48.349Z,14.98
2018-01-22T00:47:19.941Z,14.18
2018-01-22T00:47:51.562Z,18.80
2018-01-22T00:48:23.197Z,19.25
2018-01-22T00:48:54.805Z,16.98
2018-01-22T00:49:26.431Z,11.18
2018-01-22T00:49:58.064Z,17.27
2018-01-22T00:50:29.679Z,15.35
2018-01-22T00:51:01.285Z,13.85
2018-01-22T00:51:32.929Z,13.38
2018-01-22T00:52:04.545Z,14.52
2018-01-22T00:52:36.161Z,14.43
2018-01-22T00:53:07.787Z,15.27
2018-01-22T00:53:39.405Z,17.67
2018-01-22T00:54:11.023Z,22.00
2018-01-22T00:54:42.630Z,14.90
2018-01-22T00:55:14.249Z,17.48
2018-01-22T00:55:45.858Z,17.67
2018-01-22T00:56:17.482Z,14.70
2018-01-22T00:56:49.116Z,15.82
2018-01-22T00:57:20.773Z,14.75
2018-01-22T00:57:52.395Z,16.67
2018-01-22T00:58:24.001Z,16.45
2018-01-22T00:58:55.658Z,17.27
2018-01-22T00:59:27.272Z,14.43
2018-01-22T00:59:58.879Z,15.48
2018-01-22T01:00:30.487Z,16.30
2018-01-22T01:01:02.113Z,18.52
2018-01-22T01:01:33.733Z,16.60
2018-01-22T01:02:05.369Z,17.52
2018-01-22T01:02:36.993Z,16.70
2018-01-22T01:03:08.638Z,16.55
2018-01-22T01:03:40.258Z,17.00
2018-01-22T01:04:11.879Z,15.80
2018-01-22T01:04:43.487Z,15.45
2018-01-22T01:05:15.104Z,15.00
2018-01-22T01:05:46.737Z,16.70
2018-01-22T01:06:18.349Z,13.77
2018-01-22T01:06:49.967Z,17.42
2018-01-22T01:07:21.611Z,16.77
2018-01-22T01:07:53.243Z,11.95
2018-01-22T01:08:24.896Z,16.17
2018-01-22T01:08:56.516Z,17.05
2018-01-22T01:09:28.127Z,19.15
2018-01-22T01:09:59.754Z,13.70
2018-01-22T01:10:31.373Z,17.27
2018-01-22T01:11:02.999Z,13.70
2018-01-22T01:11:34.625Z,15.02
2018-01-22T01:12:06.251Z,18.12
2018-01-22T01:12:37.875Z,18.77
2018-01-22T01:13:09.473Z,17.85
2018-01-22T01:13:41.101Z,15.68
2018-01-22T01:14:12.709Z,18.70
2018-01-22T01:14:44.333Z,16.92
2018-01-22T01:15:15.965Z,16.48
2018-01-22T01:15:47.587Z,17.27
2018-01-22T01:16:19.215Z,17.15
2018-01-22T01:16:50.857Z,15.98
2018-01-22T01:17:22.503Z,17.05
2018-01-22T01:17:54.119Z,16.45
2018-01-22T01:18:25.733Z,16.08
2018-01-22T01:18:57.361Z,17.25
2018-01-22T01:19:28.981Z,16.40
2018-01-22T01:20:00.607Z,16.73
2018-01-22T01:20:32.224Z,18.95
2018-01-22T01:21:03.851Z,16.73
2018-01-22T01:21:35.487Z,17.52
2018-01-22T01:22:07.109Z,18.35
2018-01-22T01:22:38.734Z,15.52
2018-01-22T01:23:10.360Z,17.55
2018-01-22T01:23:41.995Z,17.27
2018-01-22T01:24:13.633Z,16.73
2018-01-22T01:24:45.278Z,17.25
2018-01-22T01:25:16.917Z,16.70
2018-01-22T01:25:48.562Z,16.25
2018-01-22T01:26:20.185Z,17.77
2018-01-22T01:26:51.801Z,18.35
2018-01-22T01:27:23.424Z,17.12
2018-01-22T01:27:55.041Z,18.17
2018-01-22T01:28:26.697Z,15.20
2018-01-22T01:28:58.325Z,18.95
2018-01-22T01:29:29.961Z,15.32
2018-01-22T01:30:01.655Z,17.02
2018-01-22T01:30:33.270Z,18.70
2018-01-22T01:31:04.881Z,19.05
2018-01-22T01:31:36.485Z,16.45
2018-01-22T01:32:08.159Z,17.42
2018-01-22T01:32:39.779Z,16.15
2018-01-22T01:33:11.413Z,18.87
2018-01-22T01:33:43.058Z,17.30
2018-01-22T01:34:14.681Z,18.10
2018-01-22T01:34:46.349Z,16.20
2018-01-22T01:35:17.985Z,17.95
2018-01-22T01:35:49.616Z,16.05
2018-01-22T01:36:21.249Z,19.00
2018-01-22T01:36:52.856Z,16.87
2018-01-22T01:37:24.494Z,16.30
2018-01-22T01:37:56.125Z,17.75
2018-01-22T01:38:27.755Z,17.58
2018-01-22T01:38:59.364Z,18.52
2018-01-22T01:39:31.013Z,15.75
2018-01-22T01:40:02.694Z,18.33
2018-01-22T01:40:34.298Z,18.67
2018-01-22T01:41:05.932Z,20.90
2018-01-22T01:41:37.561Z,20.35
2018-01-22T01:42:09.148Z,17.87
2018-01-22T01:42:40.780Z,16.23
2018-01-22T01:43:12.403Z,19.23
2018-01-22T01:43:44.013Z,17.00
2018-01-22T01:44:15.623Z,17.35
2018-01-22T01:44:47.268Z,16.70
2018-01-22T01:45:18.901Z,21.58
2018-01-22T01:45:50.509Z,19.02
2018-01-22T01:46:22.149Z,23.33
2018-01-22T01:46:53.788Z,20.30
2018-01-22T01:47:25.401Z,20.10
2018-01-22T01:47:57.011Z,20.92
2018-01-22T01:48:28.625Z,18.10
2018-01-22T01:49:05.248Z,19.48
2018-01-22T01:49:36.865Z,19.52
2018-01-22T01:50:08.475Z,16.12
2018-01-22T01:50:40.125Z,19.45
2018-01-22T01:51:11.752Z,18.48
2018-01-22T01:51:43.389Z,20.83
2018-01-22T01:52:15.009Z,18.87
2018-01-22T01:52:46.621Z,19.92
2018-01-22T01:53:18.247Z,20.40
2018-01-22T01:53:49.857Z,19.65
2018-01-22T01:54:21.489Z,22.55
2018-01-22T01:54:53.097Z,19.67
2018-01-22T01:55:24.729Z,18.10
2018-01-22T01:55:56.359Z,18.98
2018-01-22T01:56:27.992Z,22.75
2018-01-22T01:56:59.636Z,16.33
2018-01-22T01:57:31.249Z,21.77
2018-01-22T01:58:02.889Z,22.08
2018-01-22T01:58:34.525Z,23.25
2018-01-22T01:59:06.148Z,20.80
2018-01-22T01:59:37.779Z,20.42
2018-01-22T02:00:09.391Z,17.35
2018-01-22T02:00:41.021Z,20.30
2018-01-22T02:01:12.657Z,22.52
2018-01-22T02:01:44.315Z,15.80
2018-01-22T02:02:15.930Z,26.15
2018-01-22T02:02:47.559Z,21.60
2018-01-22T02:03:19.171Z,19.70
2018-01-22T02:03:50.812Z,20.10
2018-01-22T02:04:22.427Z,22.15
2018-01-22T02:04:54.041Z,18.52
2018-01-22T02:05:25.689Z,20.85
2018-01-22T02:05:57.318Z,21.27
2018-01-22T02:06:28.989Z,21.23
2018-01-22T02:07:00.601Z,20.42
2018-01-22T02:07:32.233Z,19.30
2018-01-22T02:08:03.845Z,20.02
2018-01-22T02:08:35.473Z,16.23
2018-01-22T02:09:07.109Z,19.92
2018-01-22T02:09:38.754Z,19.70
2018-01-22T02:10:10.397Z,20.42
2018-01-22T02:10:42.021Z,22.00
2018-01-22T02:11:13.637Z,18.92
2018-01-22T02:11:45.257Z,21.60
2018-01-22T02:12:16.869Z,19.58
2018-01-22T02:12:48.588Z,19.10
2018-01-22T02:13:20.207Z,18.87
2018-01-22T02:13:51.835Z,18.65
2018-01-22T02:14:23.441Z,18.80
2018-01-22T02:14:55.045Z,21.12
2018-01-22T02:15:26.688Z,16.27
2018-01-22T02:15:58.313Z,19.73
2018-01-22T02:16:29.949Z,19.02
2018-01-22T02:17:01.599Z,17.25
2018-01-22T02:17:33.214Z,19.02
2018-01-22T02:18:04.851Z,20.70
2018-01-22T02:18:36.485Z,18.33
2018-01-22T02:19:08.103Z,20.27
2018-01-22T02:19:39.733Z,18.80
2018-01-22T02:20:11.462Z,19.52
2018-01-22T02:20:43.122Z,18.77
2018-01-22T02:21:14.773Z,18.33
2018-01-22T02:21:46.431Z,16.65
2018-01-22T02:22:18.120Z,19.00
2018-01-22T02:22:49.732Z,19.45
2018-01-22T02:23:21.349Z,21.17
2018-01-22T02:23:52.945Z,17.58
2018-01-22T02:24:24.559Z,17.87
2018-01-22T02:24:56.181Z,18.67
2018-01-22T02:25:27.792Z,17.77
2018-01-22T02:25:59.411Z,20.08
2018-01-22T02:26:31.075Z,18.33
2018-01-22T02:27:02.711Z,18.10
2018-01-22T02:27:34.337Z,17.85
2018-01-22T02:28:05.949Z,17.65
2018-01-22T02:28:37.553Z,17.87
2018-01-22T02:29:09.203Z,15.52
2018-01-22T02:29:40.825Z,19.23
2018-01-22T02:30:12.461Z,13.85
2018-01-22T02:30:44.089Z,16.77
2018-01-22T02:31:15.708Z,17.30
2018-01-22T02:31:47.344Z,19.20
2018-01-22T02:32:18.951Z,15.85
2018-01-22T02:32:50.585Z,18.58
2018-01-22T02:33:22.206Z,17.10
2018-01-22T02:33:53.851Z,14.45
2018-01-22T02:34:25.486Z,14.43
2018-01-22T02:34:57.103Z,16.42
2018-01-22T02:35:28.713Z,18.30
2018-01-22T02:36:00.341Z,15.45
2018-01-22T02:36:31.989Z,19.58
2018-01-22T02:37:03.613Z,16.70
2018-01-22T02:37:35.249Z,17.95
2018-01-22T02:38:06.916Z,14.95
2018-01-22T02:38:38.547Z,18.42
2018-01-22T02:39:10.153Z,14.98
2018-01-22T02:39:41.753Z,16.77
2018-01-22T02:40:13.347Z,17.67
2018-01-22T02:40:44.968Z,16.67
2018-01-22T02:41:16.592Z,16.00
2018-01-22T02:41:48.184Z,18.02
2018-01-22T02:42:19.805Z,18.55
2018-01-22T02:42:51.399Z,15.63
2018-01-22T02:43:23.025Z,16.27
2018-01-22T02:43:54.611Z,17.58
2018-01-22T02:44:26.237Z,15.68
2018-01-22T02:44:57.855Z,15.15
2018-01-22T02:45:29.461Z,17.30
2018-01-22T02:46:01.081Z,17.08
2018-01-22T02:46:32.694Z,15.30
2018-01-22T02:47:04.329Z,17.87
2018-01-22T02:47:35.930Z,14.10
2018-01-22T02:48:07.525Z,13.77
2018-01-22T02:48:39.172Z,19.62
2018-01-22T02:49:10.795Z,14.93
2018-01-22T02:49:42.423Z,16.15
2018-01-22T02:50:14.061Z,16.12
2018-01-22T02:50:45.671Z,15.43
2018-01-22T02:51:17.288Z,16.73
2018-01-22T02:51:48.881Z,15.90
2018-01-22T02:52:20.483Z,18.90
2018-01-22T02:52:52.117Z,15.68
2018-01-22T02:53:23.763Z,15.70
2018-01-22T02:53:55.389Z,16.48
2018-01-22T02:54:27.029Z,14.85
2018-01-22T02:54:58.642Z,19.62
2018-01-22T02:55:30.262Z,14.87
2018-01-22T02:56:01.865Z,16.42
2018-01-22T02:56:33.499Z,18.58
2018-01-22T02:57:05.129Z,17.35
2018-01-22T02:57:36.755Z,17.92
2018-01-22T02:58:08.361Z,16.05
2018-01-22T02:58:39.983Z,16.10
2018-01-22T02:59:11.597Z,17.15
2018-01-22T02:59:43.198Z,16.48
2018-01-22T03:00:14.827Z,15.57
2018-01-22T03:00:46.459Z,16.30
2018-01-22T03:01:18.089Z,17.17
2018-01-22T03:01:49.731Z,18.35
2018-01-22T03:02:21.348Z,18.83
2018-01-22T03:02:52.951Z,16.83
2018-01-22T03:03:24.563Z,19.50
2018-01-22T03:03:56.205Z,19.40
2018-01-22T03:04:27.821Z,15.32
2018-01-22T03:04:59.433Z,17.85
2018-01-22T03:05:31.045Z,14.87
2018-01-22T03:06:02.679Z,17.80
2018-01-22T03:06:34.317Z,18.67
2018-01-22T03:07:05.926Z,17.55
2018-01-22T03:07:37.545Z,19.08
2018-01-22T03:08:09.181Z,17.67
2018-01-22T03:08:40.794Z,19.20
2018-01-22T03:09:12.400Z,18.62
2018-01-22T03:09:44.053Z,19.73
2018-01-22T03:10:15.685Z,17.65
2018-01-22T03:10:47.319Z,16.25
2018-01-22T03:11:18.919Z,20.62
2018-01-22T03:11:50.524Z,19.40
2018-01-22T03:12:22.151Z,19.52
2018-01-22T03:12:53.769Z,17.75
2018-01-22T03:13:25.380Z,18.27
2018-01-22T03:13:57.013Z,17.17
2018-01-22T03:14:28.645Z,19.60
2018-01-22T03:15:00.285Z,13.43
2018-01-22T03:15:31.899Z,19.55
2018-01-22T03:16:03.533Z,19.62
2018-01-22T03:16:35.147Z,18.80
2018-01-22T03:17:06.774Z,17.50
2018-01-22T03:17:38.386Z,19.60
2018-01-22T03:18:10.013Z,18.17
2018-01-22T03:18:41.639Z,17.80
2018-01-22T03:19:13.255Z,16.87
2018-01-22T03:19:44.873Z,21.75
2018-01-22T03:20:16.509Z,17.30
2018-01-22T03:20:48.120Z,18.00
2018-01-22T03:21:19.744Z,20.35
2018-01-22T03:21:51.358Z,18.62
2018-01-22T03:22:22.962Z,20.42
2018-01-22T03:22:54.654Z,18.85
2018-01-22T03:23:26.272Z,20.33
2018-01-22T03:23:57.889Z,19.10
2018-01-22T03:24:29.507Z,17.52
2018-01-22T03:25:01.128Z,18.80
2018-01-22T03:25:32.753Z,19.58
2018-01-22T03:26:04.417Z,20.58
2018-01-22T03:26:36.045Z,18.65
2018-01-22T03:27:07.669Z,18.25
2018-01-22T03:27:39.298Z,19.75
2018-01-22T03:28:10.919Z,18.30
2018-01-22T03:28:42.559Z,19.90
2018-01-22T03:29:14.165Z,20.92
2018-01-22T03:29:45.764Z,24.40
2018-01-22T03:30:17.403Z,20.10
2018-01-22T03:30:49.072Z,16.95
2018-01-22T03:31:20.675Z,17.42
2018-01-22T03:31:52.304Z,22.42
2018-01-22T03:32:23.921Z,18.08
2018-01-22T03:32:55.543Z,18.37
2018-01-22T03:33:27.166Z,17.12
2018-01-22T03:33:58.792Z,17.48
2018-01-22T03:34:30.413Z,19.50
2018-01-22T03:35:02.037Z,19.27
2018-01-22T03:35:33.663Z,18.60
2018-01-22T03:36:05.297Z,17.37
2018-01-22T03:36:36.927Z,16.70
2018-01-22T03:37:08.533Z,17.67
2018-01-22T03:37:40.158Z,16.23
2018-01-22T03:38:11.766Z,18.58
2018-01-22T03:38:43.381Z,17.45
2018-01-22T03:39:15.001Z,18.58
2018-01-22T03:39:46.607Z,18.48
2018-01-22T03:40:18.271Z,16.33
2018-01-22T03:40:49.905Z,18.45
2018-01-22T03:41:21.637Z,15.77
2018-01-22T03:41:53.246Z,18.80
2018-01-22T03:42:24.851Z,17.65
2018-01-22T03:42:56.477Z,14.80
2018-01-22T03:43:28.098Z,17.33
2018-01-22T03:43:59.716Z,17.87
2018-01-22T03:44:31.339Z,16.50
2018-01-22T03:45:03.009Z,17.73
2018-01-22T03:45:34.619Z,18.02
2018-01-22T03:46:06.253Z,16.80
2018-01-22T03:46:37.875Z,16.27
2018-01-22T03:47:09.485Z,17.50
2018-01-22T03:47:41.114Z,17.12
2018-01-22T03:48:12.761Z,17.27
2018-01-22T03:48:44.379Z,18.45
2018-01-22T03:49:15.982Z,19.00
2018-01-22T03:49:47.612Z,17.80
2018-01-22T03:50:19.227Z,17.15
2018-01-22T03:50:50.866Z,18.02
2018-01-22T03:51:22.485Z,17.08
2018-01-22T03:51:54.104Z,21.92
2018-01-22T03:52:25.729Z,21.35
2018-01-22T03:52:57.359Z,18.73
2018-01-22T03:53:28.975Z,18.48
2018-01-22T03:54:00.571Z,20.35
2018-01-22T03:54:32.197Z,21.23
2018-01-22T03:55:03.838Z,20.33
2018-01-22T03:55:35.440Z,17.42
2018-01-22T03:56:07.107Z,17.37
2018-01-22T03:56:38.731Z,19.05
2018-01-22T03:57:11.352Z,17.00
2018-01-22T03:57:42.998Z,19.42
2018-01-22T03:58:14.621Z,18.92
2018-01-22T03:58:46.237Z,21.12
2018-01-22T03:59:17.849Z,19.77
2018-01-22T03:59:49.461Z,20.62
2018-01-22T04:00:21.089Z,18.60
2018-01-22T04:00:52.728Z,19.65
2018-01-22T04:01:24.350Z,18.17
2018-01-22T04:01:55.969Z,19.00
2018-01-22T04:02:27.599Z,19.35
2018-01-22T04:02:59.211Z,21.48
2018-01-22T04:03:30.818Z,21.80
2018-01-22T04:04:02.435Z,19.67
2018-01-22T04:04:34.262Z,19.42
2018-01-22T04:05:05.896Z,21.02
2018-01-22T04:05:37.515Z,20.60
2018-01-22T04:06:09.161Z,20.35
2018-01-22T04:06:40.761Z,19.90
2018-01-22T04:07:16.299Z,18.75
2018-01-22T04:07:47.923Z,21.25
2018-01-22T04:08:19.535Z,20.12
2018-01-22T04:08:51.158Z,21.50
2018-01-22T04:09:22.796Z,19.02
2018-01-22T04:09:54.384Z,17.65
2018-01-22T04:10:25.993Z,21.27
2018-01-22T04:10:57.587Z,25.02
2018-01-22T04:11:29.205Z,19.85
2018-01-22T04:12:00.810Z,20.98
2018-01-22T04:12:32.427Z,21.48
2018-01-22T04:13:04.062Z,23.45
2018-01-22T04:13:35.681Z,19.02
2018-01-22T04:14:07.285Z,22.45
2018-01-22T04:14:38.903Z,21.33
2018-01-22T04:15:10.559Z,22.02
2018-01-22T04:15:42.159Z,23.10
2018-01-22T04:16:13.769Z,26.92
2018-01-22T04:16:45.377Z,20.45
2018-01-22T04:17:17.007Z,20.50
2018-01-22T04:17:48.617Z,20.55
2018-01-22T04:18:20.242Z,21.67
2018-01-22T04:18:51.845Z,21.87
2018-01-22T04:19:23.470Z,20.83
2018-01-22T04:19:55.113Z,22.52
2018-01-22T04:20:26.741Z,21.95
2018-01-22T04:20:58.350Z,23.67
2018-01-22T04:21:29.967Z,22.37
2018-01-22T04:22:01.633Z,20.45
2018-01-22T04:22:33.253Z,21.67
2018-01-22T04:23:04.853Z,22.30
2018-01-22T04:23:36.489Z,26.67
2018-01-22T04:24:08.087Z,21.70
2018-01-22T04:24:39.716Z,23.17
2018-01-22T04:25:11.351Z,19.62
2018-01-22T04:25:42.967Z,21.83
2018-01-22T04:26:14.589Z,21.10
2018-01-22T04:26:46.220Z,25.77
2018-01-22T04:27:17.849Z,25.83
2018-01-22T04:27:49.486Z,21.12
2018-01-22T04:28:21.115Z,23.02
2018-01-22T04:28:52.759Z,22.70
2018-01-22T04:29:24.381Z,24.58
2018-01-22T04:29:55.984Z,24.12
2018-01-22T04:30:27.590Z,21.73
2018-01-22T04:30:59.223Z,24.40
2018-01-22T04:31:30.851Z,24.20
2018-01-22T04:32:02.461Z,24.30
2018-01-22T04:32:34.065Z,26.20
2018-01-22T04:33:05.677Z,26.10
2018-01-22T04:33:37.311Z,23.73
2018-01-22T04:34:08.921Z,27.33
2018-01-22T04:34:40.534Z,25.48
2018-01-22T04:35:12.175Z,25.20
2018-01-22T04:35:43.810Z,25.65
2018-01-22T04:36:15.452Z,26.35
2018-01-22T04:36:47.056Z,24.00
2018-01-22T04:37:18.665Z,27.40
2018-01-22T04:37:50.298Z,23.70
2018-01-22T04:38:21.905Z,26.15
2018-01-22T04:38:53.509Z,28.98
2018-01-22T04:39:25.155Z,27.10
2018-01-22T04:39:56.777Z,25.92
2018-01-22T04:40:28.405Z,26.17
2018-01-22T04:41:00.004Z,27.25
2018-01-22T04:41:31.612Z,27.20
2018-01-22T04:42:03.255Z,25.90
2018-01-22T04:42:34.865Z,27.20
2018-01-22T04:43:06.495Z,26.92
2018-01-22T04:43:38.102Z,24.27
2018-01-22T04:44:09.706Z,26.00
2018-01-22T04:44:41.336Z,26.90
2018-01-22T04:45:12.962Z,25.73
2018-01-22T04:45:44.570Z,26.00
2018-01-22T04:46:16.185Z,27.87
2018-01-22T04:46:47.824Z,25.00
2018-01-22T04:47:19.418Z,28.27
2018-01-22T04:47:51.041Z,29.05
2018-01-22T04:48:22.661Z,27.27
2018-01-22T04:48:54.276Z,26.42
2018-01-22T04:49:25.892Z,26.60
2018-01-22T04:49:57.522Z,26.05
2018-01-22T04:50:29.121Z,25.30
2018-01-22T04:51:00.733Z,24.75
2018-01-22T04:51:32.366Z,31.62
2018-01-22T04:52:03.997Z,27.92
2018-01-22T04:52:35.596Z,26.20
2018-01-22T04:53:07.212Z,29.17
2018-01-22T04:53:38.837Z,29.63
2018-01-22T04:54:10.457Z,27.23
2018-01-22T04:54:42.079Z,29.45
2018-01-22T04:55:13.728Z,27.35
2018-01-22T04:55:45.336Z,30.42
2018-01-22T04:56:16.933Z,28.40
2018-01-22T04:56:48.549Z,31.58
2018-01-22T04:57:20.159Z,28.25
2018-01-22T04:57:51.767Z,34.53
2018-01-22T04:58:23.373Z,27.60
2018-01-22T04:58:54.999Z,30.80
2018-01-22T04:59:26.603Z,32.88
2018-01-22T04:59:58.215Z,28.92
2018-01-22T05:00:29.861Z,32.00
2018-01-22T05:01:01.495Z,32.58
2018-01-22T05:01:33.109Z,28.17
2018-01-22T05:02:04.717Z,29.08
2018-01-22T05:02:36.328Z,30.10
2018-01-22T05:03:08.019Z,27.92
2018-01-22T05:03:39.595Z,30.10
2018-01-22T05:04:11.237Z,32.25
2018-01-22T05:04:42.883Z,28.27
2018-01-22T05:05:14.540Z,24.77
2018-01-22T05:05:46.189Z,31.10
2018-01-22T05:06:17.820Z,28.83
2018-01-22T05:06:49.421Z,31.02
2018-01-22T05:07:21.034Z,30.55
2018-01-22T05:07:52.669Z,33.70
2018-01-22T05:08:24.282Z,28.05
2018-01-22T05:08:55.907Z,32.65
2018-01-22T05:09:27.543Z,32.75
2018-01-22T05:09:59.174Z,34.47
2018-01-22T05:10:30.787Z,30.02
2018-01-22T05:11:02.429Z,32.88
2018-01-22T05:11:34.061Z,30.60
2018-01-22T05:12:05.667Z,31.95
2018-01-22T05:12:37.286Z,32.28
2018-01-22T05:13:08.897Z,34.25
2018-01-22T05:13:40.536Z,38.40
2018-01-22T05:14:12.145Z,34.03
2018-01-22T05:14:43.776Z,33.42
2018-01-22T05:15:15.401Z,33.38
2018-01-22T05:15:47.002Z,36.85
2018-01-22T05:16:18.620Z,35.45
2018-01-22T05:16:50.226Z,32.03
2018-01-22T05:17:21.853Z,32.03
2018-01-22T05:17:53.493Z,35.50
2018-01-22T05:18:25.119Z,31.42
2018-01-22T05:18:56.747Z,37.97
2018-01-22T05:19:28.343Z,36.83
2018-01-22T05:19:59.993Z,35.60
2018-01-22T05:20:31.604Z,34.45
2018-01-22T05:21:03.229Z,30.10
2018-01-22T05:21:34.851Z,36.03
2018-01-22T05:22:06.465Z,31.77
2018-01-22T05:22:38.077Z,34.83
2018-01-22T05:23:09.702Z,41.50
2018-01-22T05:23:41.319Z,31.87
2018-01-22T05:24:12.946Z,32.50
2018-01-22T05:24:44.558Z,36.92
2018-01-22T05:25:16.165Z,39.28
2018-01-22T05:25:47.762Z,38.33
2018-01-22T05:26:22.547Z,34.33
2018-01-22T05:26:54.209Z,38.92
2018-01-22T05:27:25.853Z,35.40
2018-01-22T05:27:57.480Z,33.10
2018-01-22T05:28:29.083Z,40.45
2018-01-22T05:29:00.712Z,36.13
2018-01-22T05:29:32.383Z,32.63
2018-01-22T05:30:04.021Z,37.20
2018-01-22T05:30:35.693Z,30.08
2018-01-22T05:31:07.354Z,34.80
2018-01-22T05:31:38.968Z,35.85
2018-01-22T05:32:10.584Z,32.78
2018-01-22T05:32:42.191Z,37.25
2018-01-22T05:33:13.810Z,34.40
2018-01-22T05:33:45.424Z,33.08
2018-01-22T05:34:17.045Z,30.77
2018-01-22T05:34:48.663Z,33.25
2018-01-22T05:35:20.260Z,35.58
2018-01-22T05:35:51.893Z,38.30
2018-01-22T05:36:23.509Z,38.55
2018-01-22T05:36:55.115Z,40.12
2018-01-22T05:37:26.778Z,35.30
2018-01-22T05:37:58.387Z,27.70
2018-01-22T05:38:30.021Z,36.10
2018-01-22T05:39:01.645Z,30.02
2018-01-22T05:39:33.282Z,36.35
2018-01-22T05:40:04.905Z,36.35
2018-01-22T05:40:36.536Z,39.78
2018-01-22T05:41:08.161Z,42.72
2018-01-22T05:41:39.807Z,41.30
2018-01-22T05:42:11.437Z,33.28
2018-01-22T05:42:43.074Z,41.25
2018-01-22T05:43:14.697Z,49.78
2018-01-22T05:43:46.324Z,37.70
2018-01-22T05:44:17.929Z,45.15
2018-01-22T05:44:49.545Z,46.37
2018-01-22T05:45:21.171Z,56.47
2018-01-22T05:45:52.801Z,48.65
2018-01-22T05:46:24.427Z,65.00
2018-01-22T05:46:56.040Z,49.53
2018-01-22T05:47:27.657Z,60.40
2018-01-22T05:47:59.296Z,57.15
2018-01-22T05:48:30.926Z,61.78
2018-01-22T05:49:02.561Z,65.62
2018-01-22T05:49:34.212Z,57.80
2018-01-22T05:50:05.811Z,51.60
2018-01-22T05:50:37.457Z,48.92
2018-01-22T05:51:09.085Z,60.40
2018-01-22T05:51:40.707Z,51.13
2018-01-22T05:52:12.317Z,52.53
2018-01-22T05:52:43.931Z,51.85
2018-01-22T05:53:15.541Z,48.55
2018-01-22T05:53:47.159Z,49.38
2018-01-22T05:54:18.770Z,51.55
2018-01-22T05:54:50.365Z,52.20
2018-01-22T05:55:21.972Z,44.28
2018-01-22T05:55:53.635Z,46.08
2018-01-22T05:56:25.294Z,57.10
2018-01-22T05:56:56.921Z,49.53
2018-01-22T05:57:28.561Z,46.72
2018-01-22T05:58:00.198Z,54.17
2018-01-22T05:58:31.837Z,60.35
2018-01-22T05:59:03.478Z,54.55
2018-01-22T05:59:35.168Z,51.97
2018-01-22T06:00:06.821Z,57.58
2018-01-22T06:00:38.461Z,47.22
2018-01-22T06:01:10.087Z,44.08
2018-01-22T06:01:41.730Z,43.03
2018-01-22T06:02:13.376Z,44.67
2018-01-22T06:02:45.000Z,46.70
2018-01-22T06:03:16.636Z,65.10
2018-01-22T06:03:48.265Z,51.08
2018-01-22T06:04:19.873Z,54.53
2018-01-22T06:04:51.476Z,49.30
2018-01-22T06:05:23.093Z,50.83
2018-01-22T06:05:54.693Z,50.25
2018-01-22T06:06:26.306Z,62.13
2018-01-22T06:06:57.927Z,60.38
2018-01-22T06:07:29.564Z,69.40
2018-01-22T06:08:01.172Z,53.22
2018-01-22T06:08:32.819Z,55.60
2018-01-22T06:09:04.473Z,43.20
2018-01-22T06:09:36.145Z,54.38
2018-01-22T06:10:07.809Z,51.78
2018-01-22T06:10:39.444Z,57.78
2018-01-22T06:11:11.073Z,48.38
2018-01-22T06:11:42.693Z,44.70
2018-01-22T06:12:14.317Z,51.97
2018-01-22T06:12:45.961Z,43.78
2018-01-22T06:13:17.580Z,46.85
2018-01-22T06:13:49.188Z,38.83
2018-01-22T06:14:20.839Z,35.70
2018-01-22T06:14:52.449Z,46.13
2018-01-22T06:15:24.082Z,48.05
2018-01-22T06:15:55.712Z,47.10
2018-01-22T06:16:27.340Z,42.40
2018-01-22T06:16:58.954Z,39.60
2018-01-22T06:17:30.588Z,43.30
2018-01-22T06:18:02.247Z,30.85
2018-01-22T06:18:33.863Z,43.85
2018-01-22T06:19:05.505Z,37.80
2018-01-22T06:19:37.174Z,49.85
2018-01-22T06:20:08.801Z,42.70
2018-01-22T06:20:40.446Z,39.38
2018-01-22T06:21:12.066Z,37.00
2018-01-22T06:21:43.709Z,34.70
2018-01-22T06:22:15.407Z,45.30
2018-01-22T06:22:47.057Z,47.58
2018-01-22T06:23:18.673Z,42.67
2018-01-22T06:23:50.292Z,34.65
2018-01-22T06:24:21.911Z,46.42
2018-01-22T06:24:53.527Z,42.60
2018-01-22T06:25:25.158Z,41.25
2018-01-22T06:25:56.809Z,34.13
2018-01-22T06:26:28.442Z,31.17
2018-01-22T06:27:00.061Z,32.88
2018-01-22T06:27:31.679Z,29.90
2018-01-22T06:28:03.338Z,37.63
2018-01-22T06:28:34.983Z,32.15
2018-01-22T06:29:06.645Z,43.40
2018-01-22T06:29:38.380Z,30.40
2018-01-22T06:30:10.032Z,30.12
2018-01-22T06:30:41.645Z,39.80
2018-01-22T06:31:13.267Z,26.37
2018-01-22T06:31:44.874Z,29.77
2018-01-22T06:32:16.477Z,29.58
2018-01-22T06:32:48.090Z,27.30
2018-01-22T06:33:19.695Z,40.75
2018-01-22T06:33:51.305Z,34.58
2018-01-22T06:34:22.902Z,30.00
2018-01-22T06:34:54.518Z,32.63
2018-01-22T06:35:26.144Z,39.50
2018-01-22T06:35:57.758Z,33.80
2018-01-22T06:36:29.385Z,33.72
2018-01-22T06:37:01.001Z,33.00
2018-01-22T06:37:32.606Z,31.33
2018-01-22T06:38:04.268Z,35.80
2018-01-22T06:38:35.893Z,38.25
2018-01-22T06:39:07.520Z,25.83
2018-01-22T06:39:39.126Z,33.47
2018-01-22T06:40:10.735Z,31.65
2018-01-22T06:40:42.363Z,29.95
2018-01-22T06:41:13.983Z,26.95
2018-01-22T06:41:45.592Z,39.92
2018-01-22T06:42:17.207Z,28.73
2018-01-22T06:42:48.808Z,43.95
2018-01-22T06:43:20.454Z,28.52
2018-01-22T06:43:52.072Z,23.92
2018-01-22T06:44:23.692Z,29.33
2018-01-22T06:44:55.354Z,34.05
2018-01-22T06:45:26.987Z,29.58
2018-01-22T06:45:58.622Z,26.98
2018-01-22T06:46:30.232Z,38.65
2018-01-22T06:47:01.843Z,27.52
2018-01-22T06:47:33.472Z,26.45